Time;durP1;ratioP1;P1;durP2;ratioP2;P2;SDS_P1;SDS_P2;PMS_P1;PMS_P2;Temp;Humidity;BMP_temperature;BMP_pressure;BME280_temperature;BME280_humidity;BME280_pressure;Samples;Min_cycle;Max_cycle;Signal;HPM_P1;HPM_P2
2021/07/27 00:00:15;;;;;;;;;15.25;11.75;;;;;22.89;56.73;100908.41;6130180;23;47913;-69
2021/07/27 00:02:40;;;;;;;;;13.50;12.25;;;;;22.81;56.76;100893.72;6156400;23;46553;-69
2021/07/27 00:05:06;;;;;;;;;13.75;12.75;;;;;22.82;57.01;100901.75;6157136;23;45318;-69
2021/07/27 00:07:31;;;;;;;;;11.50;11.50;;;;;22.71;57.04;100891.72;6156932;23;45338;-69
2021/07/27 00:09:56;;;;;;;;;12.75;11.25;;;;;22.72;57.23;100889.88;6130244;23;46160;-69
2021/07/27 00:12:22;;;;;;;;;13.25;13.25;;;;;22.69;56.85;100891.00;6129575;23;46212;-69
2021/07/27 00:14:47;;;;;;;;;11.00;11.00;;;;;22.78;57.36;100911.16;6129958;23;45749;-69
2021/07/27 00:17:12;;;;;;;;;12.25;11.25;;;;;22.73;57.12;100900.63;6130536;23;45376;-69
2021/07/27 00:19:38;;;;;;;;;16.00;14.00;;;;;22.68;57.37;100896.56;6156763;23;45298;-69
2021/07/27 00:22:03;;;;;;;;;13.25;12.00;;;;;22.72;57.34;100901.63;6156783;23;45365;-69
2021/07/27 00:24:28;;;;;;;;;13.00;10.75;;;;;22.55;56.98;100878.53;6129869;23;46222;-69
2021/07/27 00:26:55;;;;;;;;;14.25;12.50;;;;;22.44;57.57;100851.31;6130471;23;45242;-69
2021/07/27 00:29:22;;;;;;;;;13.75;13.75;;;;;22.64;57.17;100889.66;6157357;23;45295;-69
2021/07/27 00:31:47;;;;;;;;;13.00;11.50;;;;;22.68;57.47;100885.69;6155143;23;46998;-69
2021/07/27 00:34:12;;;;;;;;;13.00;11.25;;;;;22.67;57.88;100878.50;6156472;23;45355;-69
2021/07/27 00:36:38;;;;;;;;;13.50;12.50;;;;;22.64;57.58;100876.91;6130691;23;45267;-69
2021/07/27 00:39:03;;;;;;;;;14.00;12.25;;;;;22.58;57.64;100877.38;6157175;23;45144;-69
2021/07/27 00:41:29;;;;;;;;;13.50;12.00;;;;;22.62;57.90;100886.16;6157130;23;45148;-69
2021/07/27 00:43:54;;;;;;;;;12.75;12.75;;;;;22.52;57.88;100857.00;6157049;23;45192;-69
2021/07/27 00:46:20;;;;;;;;;13.00;11.00;;;;;22.60;57.40;100878.13;6157050;23;45672;-68
2021/07/27 00:48:45;;;;;;;;;13.25;13.25;;;;;22.57;57.35;100873.81;6156886;23;45208;-69
2021/07/27 00:51:10;;;;;;;;;12.25;12.25;;;;;22.55;57.34;100875.81;6157052;23;45347;-69
2021/07/27 00:53:36;;;;;;;;;14.25;13.50;;;;;22.37;58.06;100844.66;6156826;23;45302;-69
2021/07/27 00:56:05;;;;;;;;;8.25;8.00;;;;;22.49;57.97;100868.13;6157016;23;45374;-69
2021/07/27 00:58:30;;;;;;;;;12.75;11.75;;;;;22.44;57.88;100864.91;6156820;23;45300;-69
2021/07/27 01:00:56;;;;;;;;;13.25;12.25;;;;;22.50;57.70;100878.03;6157096;23;45183;-69
2021/07/27 01:03:21;;;;;;;;;16.25;15.25;;;;;22.32;57.77;100841.41;6156502;23;45520;-69
2021/07/27 01:05:47;;;;;;;;;14.50;12.75;;;;;22.42;58.07;100860.56;6157268;23;45298;-69
2021/07/27 01:08:12;;;;;;;;;17.00;14.00;;;;;22.41;57.67;100872.47;6156550;23;45280;-69
2021/07/27 01:10:38;;;;;;;;;15.75;12.00;;;;;22.48;58.28;100882.69;6155015;23;46140;-69
2021/07/27 01:13:04;;;;;;;;;14.25;12.50;;;;;22.47;58.07;100886.44;6156797;23;45256;-69
2021/07/27 01:15:29;;;;;;;;;17.25;12.75;;;;;22.39;57.92;100875.31;6156496;23;45178;-69
2021/07/27 01:18:03;;;;;;;;;12.75;12.75;;;;;22.38;57.85;100879.00;6129776;23;45497;-69
2021/07/27 01:20:45;;;;;;;;;12.00;12.00;;;;;22.38;58.32;100879.84;6131466;23;46412;-68
2021/07/27 01:39:38;;;;;;;;;12.00;12.00;;;;;22.22;58.72;100857.59;6146348;23;45178;-69
2021/07/27 01:42:04;;;;;;;;;19.25;13.50;;;;;22.07;59.00;100843.34;6156482;23;45583;-69
2021/07/27 01:44:30;;;;;;;;;13.00;12.75;;;;;22.21;58.50;100873.00;6155973;23;45203;-69
2021/07/27 01:46:56;;;;;;;;;14.75;13.50;;;;;22.12;58.73;100842.97;6130436;23;45401;-68
2021/07/27 01:49:22;;;;;;;;;12.25;12.25;;;;;22.05;58.67;100844.44;6155694;23;45348;-69
2021/07/27 01:51:47;;;;;;;;;14.75;12.75;;;;;22.13;59.02;100856.44;6130552;23;45282;-69
2021/07/27 01:54:16;;;;;;;;;13.25;11.25;;;;;22.23;58.48;100862.03;6156361;23;45334;-69
2021/07/27 01:56:46;;;;;;;;;15.00;12.50;;;;;22.21;59.12;100859.41;6156359;23;45219;-69
2021/07/27 01:59:12;;;;;;;;;14.50;13.25;;;;;22.20;58.85;100856.81;6156288;23;45191;-69
2021/07/27 02:01:39;;;;;;;;;12.50;12.50;;;;;22.17;58.67;100852.50;6156819;23;45151;-69
2021/07/27 02:04:05;;;;;;;;;13.25;13.25;;;;;22.17;58.55;100857.94;6155585;23;45151;-69
2021/07/27 02:06:30;;;;;;;;;11.25;11.25;;;;;22.18;59.27;100859.66;6130198;23;45355;-69
2021/07/27 02:09:00;;;;;;;;;12.00;12.00;;;;;22.06;58.58;100835.31;6156557;23;45163;-69
2021/07/27 02:11:33;;;;;;;;;14.50;13.50;;;;;22.14;58.95;100850.03;6155741;23;47048;-69
2021/07/27 02:14:00;;;;;;;;;11.75;10.25;;;;;22.12;58.74;100856.56;6155255;23;45306;-69
2021/07/27 02:16:25;;;;;;;;;11.50;11.50;;;;;22.00;59.03;100834.81;6130335;23;45473;-69
2021/07/27 02:18:51;;;;;;;;;11.50;11.50;;;;;21.99;58.86;100838.53;6155721;23;45385;-69
2021/07/27 02:21:16;;;;;;;;;11.75;11.75;;;;;22.05;59.00;100847.16;6156196;23;46790;-69
2021/07/27 02:23:41;;;;;;;;;11.50;11.50;;;;;22.11;59.24;100854.84;6155650;23;45403;-69
2021/07/27 02:26:08;;;;;;;;;13.75;12.75;;;;;22.09;59.29;100845.97;6156524;23;45293;-69
2021/07/27 02:28:33;;;;;;;;;12.25;12.25;;;;;22.06;58.64;100841.63;6129698;23;45309;-69
2021/07/27 02:31:01;;;;;;;;;15.50;14.00;;;;;22.04;59.30;100842.75;6156333;23;45214;-69
2021/07/27 02:33:28;;;;;;;;;14.25;14.00;;;;;22.04;59.46;100840.03;6156626;23;45334;-69
2021/07/27 02:35:53;;;;;;;;;12.50;11.50;;;;;22.02;59.36;100832.00;6130978;23;45270;-69
2021/07/27 02:38:19;;;;;;;;;12.75;10.75;;;;;22.04;59.01;100837.31;6157217;23;45345;-68
2021/07/27 02:40:45;;;;;;;;;15.50;12.50;;;;;22.01;59.14;100839.25;6130459;23;46973;-69
2021/07/27 02:43:10;;;;;;;;;13.00;12.50;;;;;21.93;59.14;100819.13;6155395;23;45284;-69
2021/07/27 02:45:37;;;;;;;;;15.50;13.50;;;;;21.95;59.60;100828.88;6157148;23;45375;-69
2021/07/27 02:48:03;;;;;;;;;12.75;11.75;;;;;21.94;59.20;100824.44;6157237;23;45425;-69
2021/07/27 02:50:28;;;;;;;;;12.00;11.25;;;;;21.88;59.32;100814.03;6130684;23;45990;-69
2021/07/27 02:52:54;;;;;;;;;10.50;10.50;;;;;21.92;59.41;100822.81;6157290;23;45111;-69
2021/07/27 02:55:19;;;;;;;;;13.00;11.25;;;;;21.90;59.77;100822.06;6130931;23;45195;-69
2021/07/27 02:57:48;;;;;;;;;12.50;11.25;;;;;21.99;59.38;100838.53;6130453;23;45179;-69
2021/07/27 03:00:14;;;;;;;;;13.00;12.75;;;;;21.99;59.45;100841.25;6157120;23;45556;-69
2021/07/27 03:02:43;;;;;;;;;12.00;10.00;;;;;21.92;59.56;100825.53;6156934;23;45320;-69
2021/07/27 03:05:09;;;;;;;;;14.25;13.75;;;;;21.95;59.83;100826.19;6157372;23;45386;-69
2021/07/27 03:07:47;;;;;;;;;13.25;13.25;;;;;21.99;59.30;100832.22;6157363;23;45254;-69
2021/07/27 03:10:18;;;;;;;;;11.75;11.75;;;;;21.96;59.53;100822.44;6156834;23;46227;-68
2021/07/27 03:12:44;;;;;;;;;7.75;7.25;;;;;22.02;59.74;100832.00;6155425;23;45211;-68
2021/07/27 03:15:11;;;;;;;;;13.75;11.50;;;;;22.01;59.48;100827.53;6157066;23;45401;-69
2021/07/27 03:17:37;;;;;;;;;13.25;12.50;;;;;21.93;59.55;100824.56;6157048;23;45228;-69
2021/07/27 03:20:04;;;;;;;;;15.50;14.00;;;;;21.96;59.44;100821.59;6157328;23;45424;-69
2021/07/27 03:22:29;;;;;;;;;11.50;11.50;;;;;21.92;59.68;100810.09;6157185;23;45383;-69
2021/07/27 03:24:55;;;;;;;;;12.75;12.00;;;;;21.82;59.51;100796.38;6130712;23;45238;-69
2021/07/27 03:27:20;;;;;;;;;11.00;11.00;;;;;21.87;59.57;100806.00;6155448;23;45511;-69
2021/07/27 03:29:45;;;;;;;;;12.50;12.50;;;;;21.92;59.70;100806.50;6157166;23;45392;-69
2021/07/27 03:32:11;;;;;;;;;14.25;13.00;;;;;21.87;60.06;100804.16;6157234;23;45240;-69
2021/07/27 03:34:36;;;;;;;;;16.25;13.50;;;;;21.95;59.26;100815.31;6157322;23;45772;-68
2021/07/27 03:37:01;;;;;;;;;12.50;12.00;;;;;21.94;59.83;100810.84;6157298;23;45456;-69
2021/07/27 03:39:27;;;;;;;;;14.50;11.00;;;;;21.93;59.57;100802.81;6157358;23;45338;-69
2021/07/27 03:41:52;;;;;;;;;12.75;12.25;;;;;21.84;59.40;100788.97;6156438;23;45258;-69
2021/07/27 03:44:18;;;;;;;;;12.00;11.50;;;;;21.88;59.72;100791.44;6157025;23;45428;-69
2021/07/27 03:46:52;;;;;;;;;16.50;14.00;;;;;21.92;59.31;100793.81;6130365;23;45195;-69
2021/07/27 03:49:17;;;;;;;;;11.00;11.00;;;;;21.92;59.58;100799.22;6156880;23;45416;-69
2021/07/27 03:51:46;;;;;;;;;11.25;11.25;;;;;21.78;59.76;100767.69;6157419;23;45158;-69
2021/07/27 03:54:11;;;;;;;;;10.00;9.50;;;;;21.75;59.93;100758.94;6155148;23;45285;-69
2021/07/27 03:56:40;;;;;;;;;10.50;10.50;;;;;21.78;60.06;100769.56;6157428;23;45079;-69
2021/07/27 03:59:05;;;;;;;;;15.00;14.00;;;;;21.84;59.79;100785.38;6156528;23;46652;-68
2021/07/27 04:01:31;;;;;;;;;14.00;12.50;;;;;21.80;60.05;100781.16;6157389;23;45178;-69
2021/07/27 04:03:56;;;;;;;;;13.00;12.25;;;;;21.88;59.92;100788.72;6130351;23;45428;-69
2021/07/27 04:06:21;;;;;;;;;11.50;11.50;;;;;21.84;59.88;100786.25;6157171;23;45312;-68
2021/07/27 04:08:47;;;;;;;;;16.50;13.00;;;;;21.80;59.64;100770.28;6155364;23;46804;-69
2021/07/27 04:11:13;;;;;;;;;12.50;12.50;;;;;21.84;59.72;100780.81;6157140;23;45299;-69
2021/07/27 04:13:38;;;;;;;;;14.25;14.25;;;;;21.77;59.68;100774.13;6157158;23;45207;-69
2021/07/27 04:16:04;;;;;;;;;12.75;12.75;;;;;21.70;59.93;100766.59;6156517;23;45133;-69
2021/07/27 04:18:30;;;;;;;;;14.50;13.75;;;;;21.82;59.97;100788.22;6154482;23;47230;-69
2021/07/27 04:20:58;;;;;;;;;14.25;13.25;;;;;21.71;59.92;100771.91;6157040;23;45174;-69
2021/07/27 04:23:23;;;;;;;;;15.50;15.00;;;;;21.69;59.62;100773.03;6156883;23;45152;-69
2021/07/27 04:25:49;;;;;;;;;12.00;11.00;;;;;21.68;59.87;100777.56;6157217;23;45364;-69
2021/07/27 04:28:14;;;;;;;;;17.00;14.00;;;;;21.69;60.24;100775.75;6156265;23;46715;-69
2021/07/27 04:30:39;;;;;;;;;15.25;14.50;;;;;21.77;59.99;100795.88;6157240;23;45367;-69
2021/07/27 04:33:05;;;;;;;;;17.00;14.75;;;;;21.71;59.65;100790.91;6156551;23;45258;-69
2021/07/27 04:35:31;;;;;;;;;13.75;13.50;;;;;21.75;59.98;100800.56;6157216;23;45368;-69
2021/07/27 04:37:57;;;;;;;;;12.50;11.00;;;;;21.78;60.39;100804.88;6157001;23;46276;-69
2021/07/27 04:40:23;;;;;;;;;15.00;14.00;;;;;21.65;59.87;100784.13;6157241;23;45379;-69
2021/07/27 04:42:48;;;;;;;;;15.50;15.50;;;;;21.81;59.67;100805.50;6157080;23;45427;-69
2021/07/27 04:45:14;;;;;;;;;14.75;13.25;;;;;21.72;59.59;100786.34;6157062;23;45244;-69
2021/07/27 04:47:39;;;;;;;;;13.25;13.25;;;;;21.73;60.19;100780.78;6156438;23;46296;-69
2021/07/27 04:50:06;;;;;;;;;14.25;14.25;;;;;21.68;60.25;100760.41;6156672;23;45271;-69
2021/07/27 04:52:32;;;;;;;;;16.50;15.00;;;;;21.71;60.18;100758.31;6156356;23;45104;-69
2021/07/27 04:54:57;;;;;;;;;11.00;10.25;;;;;21.69;60.24;100752.16;6154505;23;45416;-69
2021/07/27 04:57:23;;;;;;;;;12.25;12.25;;;;;21.58;59.80;100752.13;6156886;23;45517;-69
2021/07/27 04:59:48;;;;;;;;;19.25;15.50;;;;;21.71;60.12;100784.63;6130183;23;45432;-69
2021/07/27 05:02:13;;;;;;;;;18.25;16.50;;;;;21.69;60.30;100787.47;6157057;23;45720;-69
2021/07/27 05:04:40;;;;;;;;;16.25;15.25;;;;;21.71;60.13;100790.06;6129772;23;45374;-69
2021/07/27 05:07:05;;;;;;;;;15.00;15.00;;;;;21.69;60.47;100786.59;6156978;23;45358;-69
2021/07/27 05:09:30;;;;;;;;;15.75;14.25;;;;;21.75;60.37;100799.69;6157227;23;45304;-69
2021/07/27 05:11:56;;;;;;;;;12.75;11.50;;;;;21.64;60.27;100773.38;6157140;23;45294;-69
2021/07/27 05:14:22;;;;;;;;;15.25;13.75;;;;;21.63;60.49;100771.63;6156460;23;45335;-69
2021/07/27 05:16:47;;;;;;;;;15.25;14.00;;;;;21.59;60.45;100765.59;6156304;23;45510;-69
2021/07/27 05:19:13;;;;;;;;;12.75;12.00;;;;;21.69;59.96;100781.19;6156680;23;45192;-69
2021/07/27 05:21:38;;;;;;;;;14.25;14.25;;;;;21.54;59.96;100775.09;6157138;23;45199;-69
2021/07/27 05:24:04;;;;;;;;;13.75;12.25;;;;;21.58;60.40;100787.44;6156644;23;45267;-69
2021/07/27 05:26:29;;;;;;;;;14.00;14.00;;;;;21.56;60.59;100783.97;6130165;23;46887;-69
2021/07/27 05:28:55;;;;;;;;;17.00;15.25;;;;;21.55;60.34;100793.97;6156949;23;45239;-69
2021/07/27 05:31:26;;;;;;;;;13.25;12.25;;;;;21.63;60.67;100804.22;6157025;23;45236;-69
2021/07/27 05:33:52;;;;;;;;;14.50;13.25;;;;;21.45;60.70;100766.63;6156101;23;45341;-69
2021/07/27 05:36:17;;;;;;;;;11.25;11.25;;;;;21.60;60.61;100799.91;6130057;23;46435;-69
2021/07/27 05:38:43;;;;;;;;;13.50;12.00;;;;;21.43;60.02;100768.63;6156942;23;45247;-69
2021/07/27 05:41:08;;;;;;;;;13.25;13.25;;;;;21.49;60.49;100790.88;6130222;23;45340;-69
2021/07/27 05:43:33;;;;;;;;;13.25;12.75;;;;;21.56;60.72;100805.69;6129908;23;45195;-69
2021/07/27 05:45:59;;;;;;;;;10.25;9.25;;;;;21.47;60.26;100801.84;6156533;23;45286;-69
2021/07/27 05:48:24;;;;;;;;;15.00;14.00;;;;;21.54;60.11;100815.81;6156235;23;45317;-69
2021/07/27 05:50:52;;;;;;;;;18.00;16.50;;;;;21.57;60.12;100827.31;6156921;23;45214;-69
2021/07/27 05:53:18;;;;;;;;;15.75;14.50;;;;;21.42;60.66;100804.03;6129516;23;45317;-69
2021/07/27 05:55:43;;;;;;;;;12.00;12.00;;;;;21.54;60.36;100826.69;6156722;23;45325;-69
2021/07/27 05:58:08;;;;;;;;;17.50;12.75;;;;;21.45;60.41;100820.06;6156234;23;45420;-69
2021/07/27 06:00:36;;;;;;;;;12.50;12.25;;;;;21.49;60.78;100821.59;6156769;23;45231;-69
2021/07/27 06:03:06;;;;;;;;;16.75;16.75;;;;;21.54;60.23;100832.13;6155582;23;45454;-69
2021/07/27 06:05:31;;;;;;;;;15.00;13.25;;;;;21.42;60.78;100829.31;6156773;23;45470;-69
2021/07/27 06:07:57;;;;;;;;;13.50;12.50;;;;;21.28;60.00;100800.53;6157716;23;45191;-69
2021/07/27 06:10:22;;;;;;;;;15.50;14.00;;;;;21.49;60.45;100839.75;6157545;23;45445;-69
2021/07/27 06:12:47;;;;;;;;;14.25;14.25;;;;;21.40;60.11;100828.59;6130620;23;45347;-69
2021/07/27 06:15:13;;;;;;;;;13.00;13.00;;;;;21.38;60.25;100835.09;6155674;23;45575;-69
2021/07/27 06:17:38;;;;;;;;;13.75;11.50;;;;;21.49;60.77;100854.19;6156895;23;45242;-69
2021/07/27 06:20:04;;;;;;;;;14.25;12.75;;;;;21.48;60.35;100854.31;6157825;23;45274;-68
2021/07/27 06:22:30;;;;;;;;;15.50;13.50;;;;;21.41;60.17;100843.88;6157433;23;45478;-69
2021/07/27 06:24:55;;;;;;;;;14.00;14.00;;;;;21.37;60.52;100836.97;6157621;23;45348;-69
2021/07/27 06:27:21;;;;;;;;;15.00;13.50;;;;;21.35;59.90;100825.34;6131050;23;45215;-69
2021/07/27 06:29:47;;;;;;;;;12.25;11.25;;;;;21.41;60.50;100837.59;6157708;23;45321;-69
2021/07/27 06:32:12;;;;;;;;;12.00;11.00;;;;;21.45;60.26;100834.53;6130570;23;45226;-70
2021/07/27 06:34:37;;;;;;;;;12.75;12.00;;;;;21.40;60.68;100825.88;6157361;23;45281;-69
2021/07/27 06:37:03;;;;;;;;;12.50;12.50;;;;;21.42;60.15;100842.91;6156214;23;45348;-69
2021/07/27 06:39:29;;;;;;;;;15.00;13.00;;;;;21.46;60.22;100854.41;6130314;23;45393;-70
2021/07/27 06:41:55;;;;;;;;;14.50;12.25;;;;;21.44;59.69;100864.50;6157419;23;45428;-69
2021/07/27 06:44:21;;;;;;;;;12.75;12.75;;;;;21.43;59.88;100855.50;6130462;23;47025;-69
2021/07/27 06:46:47;;;;;;;;;14.00;13.50;;;;;21.45;59.89;100860.78;6157435;23;45259;-69
2021/07/27 06:49:12;;;;;;;;;17.25;14.00;;;;;21.29;60.12;100837.53;6157076;23;45166;-69
2021/07/27 06:51:38;;;;;;;;;16.50;14.75;;;;;21.33;59.89;100849.03;6157414;23;45242;-69
2021/07/27 06:54:03;;;;;;;;;18.00;13.75;;;;;21.34;60.15;100850.75;6144757;23;45298;-69
2021/07/27 06:56:28;;;;;;;;;12.75;12.25;;;;;21.40;60.29;100861.16;6125052;23;45323;-69
2021/07/27 06:58:54;;;;;;;;;12.00;12.00;;;;;21.33;60.03;100848.16;6155526;23;45839;-69
2021/07/27 07:01:19;;;;;;;;;16.25;14.00;;;;;21.36;60.07;100856.09;6156828;23;45385;-69
2021/07/27 07:03:44;;;;;;;;;12.75;12.75;;;;;21.43;59.92;100862.78;6156013;23;45384;-69
2021/07/27 07:06:16;;;;;;;;;17.00;15.25;;;;;21.29;60.30;100850.25;6155161;23;45373;-69
2021/07/27 07:08:41;;;;;;;;;13.25;13.25;;;;;21.37;60.08;100869.53;6157345;23;45147;-70
2021/07/27 07:11:07;;;;;;;;;12.50;12.50;;;;;21.29;60.60;100866.53;6130395;23;45275;-69
2021/07/27 07:13:33;;;;;;;;;17.50;14.00;;;;;21.29;60.13;100869.25;6150397;23;45298;-69
2021/07/27 07:15:59;;;;;;;;;12.25;11.50;;;;;21.25;60.69;100862.31;6152239;23;45397;-68
2021/07/27 07:18:25;;;;;;;;;14.25;13.50;;;;;21.28;60.54;100870.22;6128145;23;45387;-69
2021/07/27 07:20:51;;;;;;;;;18.25;12.00;;;;;21.32;60.49;100866.31;6156131;23;45465;-68
2021/07/27 07:23:21;;;;;;;;;10.50;10.50;;;;;21.36;60.20;100880.53;6155744;23;45732;-68
2021/07/27 07:25:46;;;;;;;;;18.75;16.25;;;;;21.37;60.06;100871.41;6156226;23;45479;-69
2021/07/27 07:28:13;;;;;;;;;16.75;14.00;;;;;21.36;60.09;100881.38;6153364;23;45370;-70
2021/07/27 07:30:39;;;;;;;;;13.50;13.50;;;;;21.34;60.07;100885.22;6154158;23;45861;-69
2021/07/27 07:33:04;;;;;;;;;17.75;15.75;;;;;21.32;60.58;100890.75;6152008;23;46006;-69
2021/07/27 07:35:31;;;;;;;;;12.75;12.25;;;;;21.09;60.08;100852.63;6155366;23;45391;-69
2021/07/27 07:37:56;;;;;;;;;11.75;11.75;;;;;21.23;59.87;100872.44;6155749;23;45346;-70
2021/07/27 07:40:22;;;;;;;;;15.50;14.50;;;;;21.16;60.52;100852.16;6155515;23;45388;-70
2021/07/27 07:42:47;;;;;;;;;15.00;13.25;;;;;21.21;60.35;100868.97;6152391;23;46959;-71
2021/07/27 07:45:13;;;;;;;;;14.75;13.75;;;;;21.24;59.96;100876.88;6129036;23;45661;-71
2021/07/27 07:47:39;;;;;;;;;14.25;14.25;;;;;21.23;60.24;100878.75;6156228;23;45294;-71
2021/07/27 07:50:05;;;;;;;;;15.25;14.25;;;;;21.20;60.08;100872.66;6154079;23;45374;-70
2021/07/27 07:52:30;;;;;;;;;14.75;14.50;;;;;21.19;59.90;100866.38;6129506;23;47523;-71
2021/07/27 07:54:56;;;;;;;;;10.00;10.00;;;;;21.24;60.15;100868.75;6155634;23;45306;-71
2021/07/27 07:57:21;;;;;;;;;13.50;12.25;;;;;21.29;60.26;100882.84;6129894;23;45285;-71
2021/07/27 07:59:47;;;;;;;;;13.75;12.75;;;;;21.28;59.81;100886.50;6155078;23;45314;-71
2021/07/27 08:02:12;;;;;;;;;14.50;14.50;;;;;21.28;60.01;100894.66;6155896;23;45350;-71
2021/07/27 08:04:37;;;;;;;;;16.50;14.00;;;;;21.25;60.28;100892.16;6155620;23;45468;-70
2021/07/27 08:07:03;;;;;;;;;13.75;13.00;;;;;21.23;60.34;100892.31;6155695;23;45460;-70
2021/07/27 08:09:28;;;;;;;;;12.75;12.75;;;;;21.29;60.29;100882.84;6153790;23;45778;-70
2021/07/27 08:11:54;;;;;;;;;10.00;9.50;;;;;21.31;60.54;100886.28;6156073;23;45428;-71
2021/07/27 08:14:20;;;;;;;;;16.50;15.00;;;;;21.31;60.08;100886.28;6128731;23;45395;-70
2021/07/27 08:16:49;;;;;;;;;10.25;10.25;;;;;21.34;60.76;100888.78;6154695;23;45344;-71
2021/07/27 08:19:15;;;;;;;;;15.75;13.50;;;;;21.33;60.17;100895.19;6155171;23;45511;-71
2021/07/27 08:21:40;;;;;;;;;14.75;14.75;;;;;21.33;60.11;100888.91;6156086;23;46367;-71
2021/07/27 08:24:06;;;;;;;;;16.75;15.00;;;;;21.29;60.18;100889.13;6155089;23;45658;-71
2021/07/27 08:26:31;;;;;;;;;19.25;16.00;;;;;21.17;59.95;100871.06;6129688;23;45449;-71
2021/07/27 08:28:56;;;;;;;;;15.50;13.75;;;;;21.28;60.45;100887.41;6154865;23;45447;-71
2021/07/27 08:31:22;;;;;;;;;13.75;13.75;;;;;21.23;60.43;100877.84;6154944;23;45897;-71
2021/07/27 08:33:47;;;;;;;;;13.75;12.50;;;;;21.31;60.79;100894.44;6152671;23;45715;-70
2021/07/27 08:36:12;;;;;;;;;14.50;13.00;;;;;21.28;60.68;100881.97;6129760;23;45444;-71
2021/07/27 08:38:37;;;;;;;;;14.75;13.75;;;;;21.28;60.84;100875.66;6155353;23;47332;-71
2021/07/27 08:41:04;;;;;;;;;14.25;13.25;;;;;21.31;60.49;100861.84;6155725;23;45922;-71
2021/07/27 08:43:29;;;;;;;;;12.00;12.00;;;;;21.26;60.75;100845.91;6154452;23;45258;-71
2021/07/27 08:45:55;;;;;;;;;13.25;11.00;;;;;21.19;60.68;100843.78;6155154;23;45282;-71
2021/07/27 08:48:22;;;;;;;;;15.50;13.50;;;;;21.33;61.30;100872.59;6155148;23;45394;-71
2021/07/27 08:50:48;;;;;;;;;15.75;14.75;;;;;21.31;61.33;100875.44;6156206;23;45382;-71
2021/07/27 08:53:14;;;;;;;;;15.75;13.50;;;;;21.37;61.29;100868.69;6155661;23;45139;-71
2021/07/27 08:55:39;;;;;;;;;14.75;13.25;;;;;21.35;61.20;100871.50;6154349;23;45314;-71
2021/07/27 08:58:05;;;;;;;;;15.25;15.25;;;;;21.37;61.36;100871.41;6155620;23;45145;-71
2021/07/27 09:00:32;;;;;;;;;18.00;18.00;;;;;21.37;61.86;100874.13;6155504;23;45894;-71
2021/07/27 09:03:11;;;;;;;;;14.50;12.00;;;;;21.35;61.83;100886.91;6155510;23;45277;-71
2021/07/27 09:05:38;;;;;;;;;14.00;14.00;;;;;21.27;62.00;100868.50;6155107;23;45354;-71
2021/07/27 09:08:07;;;;;;;;;17.25;13.75;;;;;21.28;61.99;100876.53;6155508;23;45353;-71
2021/07/27 09:10:32;;;;;;;;;14.50;14.00;;;;;21.31;61.74;100885.44;6155510;23;46001;-71
2021/07/27 09:13:00;;;;;;;;;13.00;12.50;;;;;21.33;62.15;100889.75;6155635;23;45273;-71
2021/07/27 09:15:29;;;;;;;;;16.00;13.75;;;;;21.36;61.72;100900.38;6128919;23;45397;-71
2021/07/27 09:17:59;;;;;;;;;13.00;13.00;;;;;21.34;62.55;100890.63;6154651;23;45429;-71
2021/07/27 09:20:29;;;;;;;;;19.75;17.00;;;;;21.29;61.85;100885.53;6155507;23;46630;-71
2021/07/27 09:22:54;;;;;;;;;15.00;14.75;;;;;21.34;62.41;100893.34;6155756;23;45377;-71
2021/07/27 09:25:24;;;;;;;;;19.00;15.75;;;;;21.33;62.41;100887.03;6155481;23;45484;-71
2021/07/27 09:28:07;;;;;;;;;19.25;15.25;;;;;21.27;62.56;100876.66;6153239;23;45535;-71
2021/07/27 09:30:33;;;;;;;;;16.50;16.50;;;;;21.32;62.60;100890.75;6155657;23;45489;-71
2021/07/27 09:32:58;;;;;;;;;16.00;14.00;;;;;21.21;62.65;100875.25;6155523;23;45680;-72
2021/07/27 09:35:25;;;;;;;;;15.00;14.00;;;;;21.22;62.86;100876.13;6154376;23;45364;-71
2021/07/27 09:38:01;;;;;;;;;16.25;15.25;;;;;21.19;62.85;100870.94;6153631;23;45348;-72
2021/07/27 09:40:26;;;;;;;;;17.50;14.00;;;;;21.21;63.68;100875.25;6155349;23;45631;-71
2021/07/27 09:42:53;;;;;;;;;13.75;12.75;;;;;21.20;63.22;100878.97;6155993;23;45285;-71
2021/07/27 09:45:18;;;;;;;;;15.75;15.75;;;;;21.18;63.13;100880.03;6155391;23;45243;-71
2021/07/27 09:47:48;;;;;;;;;20.50;16.75;;;;;21.25;63.64;100892.16;6155295;23;45263;-71
2021/07/27 09:50:15;;;;;;;;;16.00;15.75;;;;;21.22;63.81;100887.00;6155316;23;46030;-72
2021/07/27 09:52:43;;;;;;;;;14.50;13.75;;;;;21.17;63.91;100873.75;6155608;23;45593;-72
2021/07/27 09:55:10;;;;;;;;;18.00;17.00;;;;;21.25;63.96;100894.88;6128286;23;45287;-72
2021/07/27 09:57:36;;;;;;;;;16.25;15.25;;;;;21.25;63.33;100894.88;6155387;23;45452;-72
2021/07/27 10:00:01;;;;;;;;;16.50;16.50;;;;;21.19;64.16;100885.38;6154288;23;45956;-70
2021/07/27 10:02:27;;;;;;;;;14.00;14.00;;;;;21.20;63.69;100894.38;6152879;23;45262;-70
2021/07/27 10:04:55;;;;;;;;;13.25;13.25;;;;;21.12;63.75;100892.25;6155312;23;45349;-70
2021/07/27 10:07:30;;;;;;;;;15.00;13.25;;;;;21.14;63.96;100894.84;6154895;23;45361;-71
2021/07/27 10:10:11;;;;;;;;;16.00;16.00;;;;;21.21;64.15;100910.53;6126209;23;46649;-71
2021/07/27 10:12:37;;;;;;;;;16.00;15.75;;;;;21.09;64.42;100893.31;6155139;23;45342;-70
2021/07/27 10:15:11;;;;;;;;;14.00;14.00;;;;;21.22;64.17;100911.44;6154839;23;45643;-70
2021/07/27 10:17:52;;;;;;;;;15.00;12.75;;;;;21.24;64.23;100915.75;6154879;23;45330;-70
2021/07/27 10:20:23;;;;;;;;;15.75;14.00;;;;;21.13;64.16;100896.66;6153795;23;45603;-70
2021/07/27 10:22:48;;;;;;;;;13.75;12.75;;;;;21.25;64.24;100917.50;6144614;23;45314;-70
2021/07/27 10:25:14;;;;;;;;;18.50;16.25;;;;;21.27;64.10;100910.09;6155636;23;45309;-71
2021/07/27 10:28:01;;;;;;;;;16.25;15.25;;;;;21.26;64.41;100908.34;6155117;23;45358;-70
2021/07/27 10:30:31;;;;;;;;;16.00;14.00;;;;;21.26;63.62;100913.78;6152219;23;45867;-70
2021/07/27 10:32:57;;;;;;;;;14.00;14.00;;;;;21.27;64.14;100909.25;6154301;23;45258;-70
2021/07/27 10:35:28;;;;;;;;;15.50;13.75;;;;;21.28;63.86;100908.25;6128004;23;45406;-70
2021/07/27 10:38:13;;;;;;;;;14.50;13.50;;;;;21.32;63.67;100914.28;6153860;23;45398;-70
2021/07/27 10:40:42;;;;;;;;;15.75;13.00;;;;;21.29;63.82;100910.84;6152897;23;46243;-70
2021/07/27 10:43:08;;;;;;;;;14.75;14.00;;;;;21.30;64.06;100911.72;6126757;23;45802;-70
2021/07/27 10:45:34;;;;;;;;;15.50;14.75;;;;;21.29;64.14;100905.41;6152212;23;45762;-70
2021/07/27 10:47:59;;;;;;;;;14.00;13.50;;;;;21.22;63.69;100892.44;6154004;23;45377;-67
2021/07/27 10:50:27;;;;;;;;;16.25;15.25;;;;;21.25;64.27;100900.31;6154933;23;46098;-67
2021/07/27 10:53:17;;;;;;;;;18.75;15.75;;;;;21.26;64.68;100896.63;6154894;23;45274;-68
2021/07/27 10:55:49;;;;;;;;;16.25;15.25;;;;;21.22;64.96;100885.13;6152595;23;45888;-67
2021/07/27 10:58:17;;;;;;;;;16.75;13.00;;;;;21.26;64.81;100893.91;6152028;23;45916;-67
2021/07/27 11:00:42;;;;;;;;;11.50;11.50;;;;;21.26;65.11;100883.06;6125596;23;47313;-67
2021/07/27 11:03:08;;;;;;;;;13.75;13.75;;;;;21.18;64.58;100872.75;6125530;23;45840;-67
2021/07/27 11:05:34;;;;;;;;;13.50;13.25;;;;;21.19;64.78;100876.38;6152280;23;45502;-67
2021/07/27 11:08:00;;;;;;;;;15.25;15.25;;;;;21.21;65.03;100871.69;6151864;23;45396;-67
2021/07/27 11:10:26;;;;;;;;;14.50;14.50;;;;;21.22;65.21;100877.00;6152311;23;45404;-68
2021/07/27 11:12:53;;;;;;;;;16.50;16.00;;;;;21.25;65.17;100884.91;6150599;23;45404;-68
2021/07/27 11:15:29;;;;;;;;;16.25;15.25;;;;;21.19;64.66;100868.22;6140866;23;45725;-67
2021/07/27 11:17:59;;;;;;;;;18.25;17.00;;;;;21.24;64.94;100866.03;6142520;23;45898;-67
2021/07/27 11:20:39;;;;;;;;;16.50;16.50;;;;;21.22;65.15;100873.44;6143051;23;46550;-67
2021/07/27 11:23:16;;;;;;;;;15.50;14.00;;;;;21.32;65.59;100889.84;6142420;23;45606;-66